createdAt,value
2022-11-03T00:01:35.924Z,6.28
2022-11-03T00:04:04.129Z,8.20
2022-11-03T00:06:31.972Z,6.95
2022-11-03T00:09:00.602Z,7.88
2022-11-03T00:11:28.779Z,5.50
2022-11-03T00:13:58.674Z,6.28
2022-11-03T00:16:26.726Z,5.85
2022-11-03T00:18:55.160Z,6.40
2022-11-03T00:21:23.248Z,7.05
2022-11-03T00:23:51.875Z,6.03
2022-11-03T00:26:21.610Z,5.57
2022-11-03T00:28:50.995Z,6.03
2022-11-03T00:31:22.426Z,6.25
2022-11-03T00:33:50.731Z,6.93
2022-11-03T00:36:20.618Z,3.92
2022-11-03T00:38:49.255Z,5.30
2022-11-03T00:41:18.294Z,4.88
2022-11-03T00:43:46.115Z,5.20
2022-11-03T00:46:14.232Z,7.85
2022-11-03T00:48:43.655Z,7.97
2022-11-03T00:51:12.985Z,5.15
2022-11-03T00:53:42.087Z,3.75
2022-11-03T00:56:14.057Z,6.03
2022-11-03T00:58:42.478Z,4.43
2022-11-03T01:01:13.636Z,4.53
2022-11-03T01:04:05.773Z,3.28
2022-11-03T01:06:51.624Z,4.45
2022-11-03T01:09:20.930Z,3.80
2022-11-03T01:11:57.425Z,3.40
2022-11-03T01:14:26.054Z,2.97
2022-11-03T01:16:53.881Z,4.25
2022-11-03T01:19:23.679Z,3.30
2022-11-03T01:21:51.529Z,3.63
2022-11-03T01:24:19.564Z,3.30
2022-11-03T01:26:47.467Z,3.72
2022-11-03T01:29:15.411Z,3.80
2022-11-03T01:31:44.193Z,4.18
2022-11-03T01:34:15.908Z,2.97
2022-11-03T01:36:45.888Z,2.40
2022-11-03T01:39:15.921Z,4.13
2022-11-03T01:41:45.940Z,3.30
2022-11-03T01:44:33.044Z,3.15
2022-11-03T01:47:10.038Z,4.18
2022-11-03T01:49:44.514Z,3.80
2022-11-03T01:52:19.332Z,3.47
2022-11-03T01:54:51.201Z,3.83
2022-11-03T01:57:23.726Z,3.20
2022-11-03T01:59:52.786Z,4.28
2022-11-03T02:02:20.811Z,3.05
2022-11-03T02:04:48.738Z,3.65
2022-11-03T02:07:25.014Z,3.28
2022-11-03T02:09:52.872Z,5.38
2022-11-03T02:12:22.262Z,4.57
2022-11-03T02:14:54.313Z,4.07
2022-11-03T02:17:24.129Z,3.15
2022-11-03T02:19:58.099Z,4.93
2022-11-03T02:22:51.001Z,3.85
2022-11-03T02:25:33.587Z,4.97
2022-11-03T02:28:01.913Z,5.22
2022-11-03T02:30:35.822Z,7.50
2022-11-03T02:33:12.377Z,4.78
2022-11-03T02:35:46.111Z,5.03
2022-11-03T02:38:18.117Z,6.00
2022-11-03T02:40:51.756Z,4.18
2022-11-03T02:43:20.518Z,4.75
2022-11-03T02:45:50.275Z,4.60
2022-11-03T02:48:19.903Z,4.43
2022-11-03T02:50:49.568Z,4.45
2022-11-03T02:53:17.743Z,6.22
2022-11-03T02:55:54.420Z,6.82
2022-11-03T02:58:28.353Z,4.43
2022-11-03T03:01:01.909Z,7.95
2022-11-03T03:03:33.374Z,3.95
2022-11-03T03:06:06.004Z,5.20
2022-11-03T03:08:35.951Z,6.90
2022-11-03T03:11:07.137Z,4.57
2022-11-03T03:13:35.123Z,4.05
2022-11-03T03:16:09.080Z,4.65
2022-11-03T03:18:46.354Z,3.38
2022-11-03T03:21:18.351Z,6.68
2022-11-03T03:23:50.673Z,5.03
2022-11-03T03:28:55.126Z,3.22
2022-11-03T03:31:25.460Z,3.13
2022-11-03T03:34:04.574Z,5.57
2022-11-03T03:36:40.725Z,3.47
2022-11-03T03:39:12.491Z,5.22
2022-11-03T03:41:42.645Z,6.35
2022-11-03T03:44:12.893Z,8.32
2022-11-03T03:46:45.475Z,4.43
2022-11-03T03:49:13.376Z,4.07
2022-11-03T03:51:43.437Z,6.97
2022-11-03T03:54:11.449Z,4.03
2022-11-03T03:56:46.873Z,5.28
2022-11-03T03:59:15.066Z,6.00
2022-11-03T04:01:43.192Z,8.07
2022-11-03T04:04:11.128Z,6.18
2022-11-03T04:06:38.965Z,12.43
2022-11-03T04:09:06.833Z,11.30
2022-11-03T04:11:51.202Z,5.32
2022-11-03T04:14:37.980Z,3.65
2022-11-03T04:17:23.313Z,8.23
2022-11-03T04:20:08.727Z,7.20
2022-11-03T04:22:36.674Z,9.25
2022-11-03T04:25:04.879Z,11.52
2022-11-03T04:27:34.886Z,5.07
2022-11-03T04:30:14.189Z,8.02
2022-11-03T04:32:42.234Z,8.05
2022-11-03T04:35:18.218Z,11.13
2022-11-03T04:37:47.988Z,5.72
2022-11-03T04:40:17.643Z,4.32
2022-11-03T04:42:46.374Z,5.45
2022-11-03T04:45:24.539Z,5.43
2022-11-03T04:47:53.900Z,5.75
2022-11-03T04:50:24.878Z,4.82
2022-11-03T04:52:56.275Z,3.80
2022-11-03T04:55:24.374Z,7.77
2022-11-03T04:57:57.725Z,4.15
2022-11-03T05:00:27.145Z,4.00
2022-11-03T05:02:56.393Z,4.57
2022-11-03T05:05:27.204Z,4.30
2022-11-03T05:07:57.586Z,4.75
2022-11-03T05:10:27.869Z,3.55
2022-11-03T05:12:57.364Z,4.75
2022-11-03T05:15:36.593Z,3.83
2022-11-03T05:18:18.643Z,4.10
2022-11-03T05:20:49.994Z,3.92
2022-11-03T05:23:19.300Z,4.27
2022-11-03T05:25:50.504Z,4.18
2022-11-03T05:28:24.456Z,4.75
2022-11-03T05:30:54.062Z,5.78
2022-11-03T05:33:35.236Z,6.32
2022-11-03T05:36:09.205Z,5.28
2022-11-03T05:38:37.032Z,4.25
2022-11-03T05:41:07.566Z,4.65
2022-11-03T05:43:35.391Z,5.88
2022-11-03T05:46:04.760Z,5.07
2022-11-03T05:48:35.237Z,5.43
2022-11-03T05:51:13.084Z,6.80
2022-11-03T05:53:43.472Z,4.63
2022-11-03T05:56:18.108Z,6.50
2022-11-03T05:58:47.243Z,11.20
2022-11-03T06:01:20.655Z,5.38
2022-11-03T06:03:48.674Z,7.20
2022-11-03T06:06:21.524Z,11.82
2022-11-03T06:08:49.774Z,11.30
2022-11-03T06:11:27.796Z,15.25
2022-11-03T06:13:58.040Z,14.05
2022-11-03T06:16:43.158Z,11.85
2022-11-03T06:19:26.608Z,15.20
2022-11-03T06:21:57.979Z,11.75
2022-11-03T06:24:31.003Z,9.97
2022-11-03T06:26:59.216Z,11.98
2022-11-03T06:29:27.482Z,11.75
2022-11-03T06:31:58.332Z,13.27
2022-11-03T06:34:39.603Z,10.82
2022-11-03T06:37:23.426Z,11.85
2022-11-03T06:39:54.520Z,12.50
2022-11-03T06:42:26.666Z,10.45
2022-11-03T06:44:57.162Z,13.00
2022-11-03T06:47:28.600Z,17.75
2022-11-03T06:49:59.103Z,11.40
2022-11-03T06:52:30.335Z,12.25
2022-11-03T06:55:16.860Z,15.45
2022-11-03T06:57:47.823Z,10.93
2022-11-03T07:00:33.999Z,12.65
2022-11-03T07:03:10.031Z,10.00
2022-11-03T07:05:38.920Z,12.23
2022-11-03T07:08:18.671Z,12.40
2022-11-03T07:10:46.574Z,11.32
2022-11-03T07:13:17.049Z,12.52
2022-11-03T07:15:45.321Z,14.05
2022-11-03T07:18:21.910Z,14.82
2022-11-03T07:20:50.232Z,9.23
2022-11-03T07:23:21.658Z,10.38
2022-11-03T07:25:53.440Z,9.87
2022-11-03T07:28:22.997Z,10.43
2022-11-03T07:30:51.017Z,14.15
2022-11-03T07:33:26.434Z,12.73
2022-11-03T07:38:46.006Z,9.82
2022-11-03T07:41:19.271Z,9.35
2022-11-03T07:43:52.479Z,10.70
2022-11-03T07:46:22.165Z,15.48
2022-11-03T07:48:54.030Z,12.23
2022-11-03T07:51:24.795Z,10.45
2022-11-03T07:53:54.357Z,10.80
2022-11-03T07:56:24.376Z,11.98
2022-11-03T07:58:55.306Z,12.95
2022-11-03T08:01:28.649Z,9.48
2022-11-03T08:04:01.689Z,11.55
2022-11-03T08:06:29.516Z,12.23
2022-11-03T08:08:57.334Z,11.02
2022-11-03T08:11:28.062Z,11.30
2022-11-03T08:16:25.079Z,13.38
2022-11-03T08:18:52.899Z,13.35
2022-11-03T08:21:22.114Z,10.48
2022-11-03T08:23:49.962Z,12.63
2022-11-03T08:26:17.920Z,10.43
2022-11-03T08:28:45.789Z,12.05
2022-11-03T08:31:13.644Z,13.82
2022-11-03T08:33:41.940Z,9.43
2022-11-03T08:36:10.464Z,11.43
2022-11-03T08:38:39.865Z,10.00
2022-11-03T08:41:07.687Z,14.27
2022-11-03T08:43:35.667Z,10.48
2022-11-03T08:46:15.403Z,10.07
2022-11-03T08:48:45.742Z,10.77
2022-11-03T08:51:14.562Z,8.98
2022-11-03T08:53:44.272Z,10.43
2022-11-03T08:56:14.320Z,12.05
2022-11-03T08:58:43.691Z,12.63
2022-11-03T09:01:11.617Z,8.60
2022-11-03T09:03:39.794Z,11.07
2022-11-03T09:06:08.227Z,9.30
2022-11-03T09:11:25.273Z,9.13
2022-11-03T09:13:53.171Z,11.80
2022-11-03T09:16:20.995Z,10.57
2022-11-03T09:18:48.800Z,9.07
2022-11-03T09:21:16.795Z,11.30
2022-11-03T09:23:44.641Z,9.02
2022-11-03T09:26:12.470Z,10.63
2022-11-03T09:28:41.631Z,8.77
2022-11-03T09:31:09.484Z,9.88
2022-11-03T09:33:37.291Z,8.15
2022-11-03T09:36:05.290Z,9.18
2022-11-03T09:38:33.138Z,11.10
2022-11-03T09:41:02.173Z,9.98
2022-11-03T09:43:30.095Z,9.30
2022-11-03T09:46:00.022Z,7.72
2022-11-03T09:48:28.035Z,7.45
2022-11-03T09:50:56.164Z,6.88
2022-11-03T09:53:24.010Z,8.55
2022-11-03T09:55:51.832Z,6.47
2022-11-03T09:58:19.939Z,9.27
2022-11-03T10:00:48.272Z,8.27
2022-11-03T10:03:20.722Z,9.07
2022-11-03T10:05:49.181Z,7.57
2022-11-03T10:08:23.449Z,7.90
2022-11-03T10:10:51.558Z,10.05
2022-11-03T10:13:26.979Z,10.05
2022-11-03T10:15:54.914Z,8.27
2022-11-03T10:18:24.872Z,9.65
2022-11-03T10:20:52.699Z,14.73
2022-11-03T10:23:20.512Z,11.32
2022-11-03T10:25:48.755Z,8.82
2022-11-03T10:28:22.124Z,9.02
2022-11-03T10:33:43.214Z,9.30
2022-11-03T10:36:27.648Z,10.25
2022-11-03T10:38:56.194Z,12.07
2022-11-03T10:41:25.251Z,9.88
2022-11-03T10:44:05.647Z,12.00
2022-11-03T10:46:50.374Z,11.50
2022-11-03T10:49:21.516Z,13.75
2022-11-03T10:51:52.109Z,10.85
2022-11-03T10:54:21.598Z,9.02
2022-11-03T10:56:50.941Z,9.07
2022-11-03T10:59:20.970Z,10.20
2022-11-03T11:01:49.033Z,12.65
2022-11-03T11:04:17.869Z,7.35
2022-11-03T11:06:48.144Z,7.50
2022-11-03T11:09:19.460Z,7.93
2022-11-03T11:12:17.321Z,8.52
2022-11-03T11:14:54.471Z,8.35
2022-11-03T11:17:47.697Z,7.65
2022-11-03T11:20:34.593Z,8.60
2022-11-03T11:23:35.662Z,9.80
2022-11-03T11:26:15.222Z,9.80
2022-11-03T11:28:44.356Z,7.85
2022-11-03T11:31:31.950Z,8.90
2022-11-03T11:34:37.419Z,9.35
2022-11-03T11:37:36.411Z,7.82
2022-11-03T11:40:12.368Z,15.00
2022-11-03T11:43:11.055Z,7.93
2022-11-03T11:46:16.577Z,7.63
2022-11-03T11:48:45.736Z,9.13
2022-11-03T11:51:13.666Z,7.97
2022-11-03T11:53:42.949Z,10.07
2022-11-03T11:56:13.016Z,8.57
2022-11-03T11:58:45.612Z,8.80
2022-11-03T12:01:24.469Z,8.50
2022-11-03T12:03:56.477Z,11.73
2022-11-03T12:06:35.102Z,9.10
2022-11-03T12:09:07.764Z,7.85
2022-11-03T12:11:45.840Z,14.15
2022-11-03T12:14:34.158Z,8.57
2022-11-03T12:17:35.029Z,7.65
2022-11-03T12:20:36.734Z,8.60
2022-11-03T12:23:04.557Z,8.38
2022-11-03T12:25:35.936Z,9.15
2022-11-03T12:28:03.972Z,10.43
2022-11-03T12:30:36.830Z,9.77
2022-11-03T12:33:07.515Z,10.80
2022-11-03T12:35:36.933Z,8.45
2022-11-03T12:38:04.736Z,9.43
2022-11-03T12:40:32.562Z,8.95
2022-11-03T12:43:00.380Z,10.15
2022-11-03T12:45:28.201Z,8.40
2022-11-03T12:47:56.003Z,7.43
2022-11-03T12:50:23.795Z,12.15
2022-11-03T12:52:52.982Z,10.43
2022-11-03T12:55:20.845Z,10.73
2022-11-03T12:57:48.853Z,8.50
2022-11-03T13:00:17.552Z,8.68
2022-11-03T13:02:45.434Z,8.93
2022-11-03T13:05:15.302Z,8.73
2022-11-03T13:07:43.410Z,13.93
2022-11-03T13:10:12.706Z,10.70
2022-11-03T13:12:41.560Z,10.63
2022-11-03T13:15:13.314Z,12.48
2022-11-03T13:18:06.978Z,10.18
2022-11-03T13:20:29.191Z,12.88
2022-11-03T13:22:56.983Z,10.45
2022-11-03T13:25:26.428Z,12.70
2022-11-03T13:27:54.764Z,11.80
2022-11-03T13:30:22.607Z,14.48
2022-11-03T13:32:50.485Z,14.80
2022-11-03T13:35:18.869Z,11.80
2022-11-03T13:37:46.923Z,13.02
2022-11-03T13:40:35.627Z,12.93
2022-11-03T13:43:05.148Z,11.32
2022-11-03T13:45:33.314Z,14.18
2022-11-03T13:50:50.836Z,11.63
2022-11-03T13:56:08.697Z,17.63
2022-11-03T14:01:27.546Z,18.15
2022-11-03T14:06:43.509Z,13.73
2022-11-03T14:09:11.573Z,16.80
2022-11-03T14:11:57.193Z,17.13
2022-11-03T14:14:26.370Z,13.45
2022-11-03T14:16:54.332Z,14.20
2022-11-03T14:19:27.037Z,15.95
2022-11-03T14:22:01.322Z,14.88
2022-11-03T14:24:29.182Z,16.02
2022-11-03T14:26:57.060Z,14.75
2022-11-03T14:29:27.015Z,20.48
2022-11-03T14:31:54.840Z,16.80
2022-11-03T14:34:22.745Z,17.85
2022-11-03T14:36:50.726Z,15.98
2022-11-03T14:39:18.692Z,19.02
2022-11-03T14:42:04.536Z,18.20
2022-11-03T14:44:34.884Z,18.63
2022-11-03T14:47:03.507Z,17.30
2022-11-03T14:49:32.864Z,18.70
2022-11-03T14:52:02.533Z,16.40
2022-11-03T14:54:31.296Z,16.73
2022-11-03T14:56:59.564Z,17.05
2022-11-03T14:59:27.618Z,15.70
2022-11-03T15:01:57.507Z,18.45
2022-11-03T15:04:25.848Z,19.27
2022-11-03T15:06:54.395Z,20.42
2022-11-03T15:09:22.347Z,18.88
2022-11-03T15:11:50.417Z,20.42
2022-11-03T15:14:18.285Z,17.67
2022-11-03T15:16:46.269Z,16.88
2022-11-03T15:19:15.475Z,17.38
2022-11-03T15:21:43.345Z,15.02
2022-11-03T15:27:00.019Z,17.92
2022-11-03T15:29:27.865Z,16.67
2022-11-03T15:31:55.670Z,19.58
2022-11-03T15:34:24.849Z,17.13
2022-11-03T15:36:52.679Z,19.42
2022-11-03T15:39:20.487Z,18.10
2022-11-03T15:41:48.312Z,15.18
2022-11-03T15:44:16.174Z,21.63
2022-11-03T15:46:44.015Z,18.13
2022-11-03T15:49:11.813Z,19.30
2022-11-03T15:51:40.989Z,17.00
2022-11-03T15:54:09.153Z,18.95
2022-11-03T15:56:36.962Z,23.38
2022-11-03T15:59:04.822Z,21.10
2022-11-03T16:01:32.717Z,19.63
2022-11-03T16:04:01.071Z,19.52
2022-11-03T16:06:53.812Z,17.33
2022-11-03T16:09:18.057Z,17.15
2022-11-03T16:11:45.871Z,17.52
2022-11-03T16:14:13.704Z,20.85
2022-11-03T16:16:41.542Z,25.58
2022-11-03T16:19:10.340Z,18.70
2022-11-03T16:21:38.334Z,17.92
2022-11-03T16:24:06.664Z,28.15
2022-11-03T16:26:35.903Z,22.05
2022-11-03T16:29:04.098Z,18.13
2022-11-03T16:31:31.959Z,18.95
2022-11-03T16:34:00.003Z,20.13
2022-11-03T16:36:27.859Z,19.33
2022-11-03T16:38:55.769Z,19.27
2022-11-03T16:41:23.607Z,21.73
2022-11-03T16:43:52.790Z,20.65
2022-11-03T16:46:20.634Z,21.42
2022-11-03T16:48:48.477Z,21.23
2022-11-03T16:51:16.380Z,21.48
2022-11-03T16:53:44.207Z,22.88
2022-11-03T16:56:12.178Z,18.58
2022-11-03T16:58:40.391Z,20.13
2022-11-03T17:01:09.604Z,18.70
2022-11-03T17:03:37.422Z,19.23
2022-11-03T17:06:05.541Z,20.48
2022-11-03T17:11:35.925Z,19.52
2022-11-03T17:14:05.382Z,18.98
2022-11-03T17:16:34.695Z,19.60
2022-11-03T17:19:02.533Z,17.17
2022-11-03T17:21:30.411Z,16.65
2022-11-03T17:23:59.800Z,18.08
2022-11-03T17:26:32.948Z,17.60
2022-11-03T17:29:00.826Z,18.30
2022-11-03T17:31:28.739Z,16.90
2022-11-03T17:33:59.481Z,15.05
2022-11-03T17:36:27.623Z,15.20
2022-11-03T17:38:56.713Z,16.75
2022-11-03T17:41:25.403Z,16.08
2022-11-03T17:43:53.218Z,18.92
2022-11-03T17:46:21.207Z,15.20
2022-11-03T17:48:49.029Z,15.32
2022-11-03T17:51:18.220Z,15.73
2022-11-03T17:53:46.610Z,18.95
2022-11-03T17:56:33.685Z,15.35
2022-11-03T17:59:01.986Z,14.75
2022-11-03T18:01:30.026Z,14.20
2022-11-03T18:03:58.538Z,15.07
2022-11-03T18:06:27.734Z,15.57
2022-11-03T18:08:55.562Z,13.57
2022-11-03T18:11:44.727Z,13.70
2022-11-03T18:14:12.917Z,15.15
2022-11-03T18:16:41.558Z,17.33
2022-11-03T18:19:12.313Z,15.30
2022-11-03T18:21:41.929Z,16.10
2022-11-03T18:24:13.215Z,15.50
2022-11-03T18:26:41.689Z,16.77
2022-11-03T18:29:09.718Z,19.42
2022-11-03T18:31:41.088Z,13.30
2022-11-03T18:34:14.435Z,17.27
2022-11-03T18:36:44.263Z,18.23
2022-11-03T18:39:17.886Z,13.93
2022-11-03T18:41:45.902Z,17.25
2022-11-03T18:44:20.292Z,15.15
2022-11-03T18:46:48.835Z,16.45
2022-11-03T18:49:17.091Z,21.15
2022-11-03T18:51:49.511Z,19.33
2022-11-03T18:54:21.107Z,22.95
2022-11-03T18:56:49.350Z,25.15
2022-11-03T18:59:24.558Z,31.55
2022-11-03T19:01:52.589Z,26.77
2022-11-03T19:04:20.690Z,23.50
2022-11-03T19:06:51.834Z,22.33
2022-11-03T19:09:24.324Z,19.40
2022-11-03T19:11:54.245Z,17.20
2022-11-03T19:14:26.380Z,17.77
2022-11-03T19:19:47.407Z,17.00
2022-11-03T19:22:18.669Z,19.35
2022-11-03T19:24:49.462Z,18.95
2022-11-03T19:27:20.807Z,19.83
2022-11-03T19:29:49.565Z,18.17
2022-11-03T19:32:21.357Z,19.30
2022-11-03T19:34:53.400Z,19.77
2022-11-03T19:37:22.767Z,19.70
2022-11-03T19:39:50.620Z,18.95
2022-11-03T19:42:29.800Z,18.25
2022-11-03T19:44:58.910Z,19.30
2022-11-03T19:47:32.502Z,16.88
2022-11-03T19:50:02.263Z,20.58
2022-11-03T19:52:32.614Z,22.83
2022-11-03T19:55:02.764Z,16.83
2022-11-03T19:57:30.608Z,17.33
2022-11-03T19:59:59.064Z,17.40
2022-11-03T20:02:28.321Z,18.05
2022-11-03T20:04:56.464Z,19.45
2022-11-03T20:07:31.574Z,18.10
2022-11-03T20:10:02.787Z,20.98
2022-11-03T20:12:31.630Z,18.35
2022-11-03T20:14:59.584Z,17.10
2022-11-03T20:17:27.423Z,16.58
2022-11-03T20:19:55.247Z,14.77
2022-11-03T20:22:30.088Z,16.60
2022-11-03T20:25:01.544Z,16.60
2022-11-03T20:27:30.806Z,19.20
2022-11-03T20:29:58.696Z,18.90
2022-11-03T20:32:26.536Z,16.98
2022-11-03T20:34:55.050Z,17.60
2022-11-03T20:37:22.959Z,21.05
2022-11-03T20:39:50.942Z,16.60
2022-11-03T20:42:21.953Z,20.75
2022-11-03T20:44:51.656Z,16.48
2022-11-03T20:47:19.961Z,17.88
2022-11-03T20:49:48.394Z,18.67
2022-11-03T20:52:16.459Z,18.30
2022-11-03T20:54:44.762Z,19.95
2022-11-03T20:57:15.667Z,19.83
2022-11-03T20:59:43.591Z,15.98
2022-11-03T21:02:14.274Z,15.52
2022-11-03T21:04:43.104Z,14.20
2022-11-03T21:07:12.802Z,17.80
2022-11-03T21:09:43.595Z,17.35
2022-11-03T21:12:14.758Z,16.90
2022-11-03T21:15:00.362Z,19.17
2022-11-03T21:17:46.907Z,15.55
2022-11-03T21:20:14.873Z,17.50
2022-11-03T21:22:53.299Z,18.15
2022-11-03T21:25:24.042Z,17.75
2022-11-03T21:27:53.480Z,15.48
2022-11-03T21:30:21.776Z,16.05
2022-11-03T21:32:51.091Z,16.67
2022-11-03T21:35:20.725Z,17.15
2022-11-03T21:37:48.922Z,16.50
2022-11-03T21:40:17.603Z,19.80
2022-11-03T21:43:03.123Z,16.08
2022-11-03T21:45:30.946Z,17.90
2022-11-03T21:48:18.168Z,19.50
2022-11-03T21:50:46.320Z,17.65
2022-11-03T21:53:14.374Z,16.60
2022-11-03T21:55:42.309Z,14.98
2022-11-03T21:58:10.493Z,19.98
2022-11-03T22:00:38.330Z,17.38
2022-11-03T22:03:07.887Z,20.13
2022-11-03T22:05:35.930Z,20.08
2022-11-03T22:08:03.795Z,19.80
2022-11-03T22:10:31.874Z,21.20
2022-11-03T22:12:59.727Z,19.17
2022-11-03T22:15:44.965Z,20.73
2022-11-03T22:18:14.137Z,18.90
2022-11-03T22:20:59.600Z,17.80
2022-11-03T22:23:45.120Z,20.85
2022-11-03T22:26:32.575Z,21.25
2022-11-03T22:29:18.223Z,17.38
2022-11-03T22:31:46.065Z,19.20
2022-11-03T22:34:32.685Z,17.20
2022-11-03T22:37:00.858Z,20.13
2022-11-03T22:39:46.172Z,20.67
2022-11-03T22:42:31.769Z,20.40
2022-11-03T22:45:17.299Z,18.15
2022-11-03T22:47:45.227Z,17.58
2022-11-03T22:50:14.457Z,18.52
2022-11-03T22:52:42.258Z,20.20
2022-11-03T22:55:09.268Z,16.40
2022-11-03T22:57:37.083Z,20.20
2022-11-03T23:00:06.590Z,19.33
2022-11-03T23:02:34.471Z,15.73
2022-11-03T23:05:02.329Z,16.20
2022-11-03T23:07:34.757Z,17.42
2022-11-03T23:10:05.357Z,22.63
2022-11-03T23:12:33.225Z,22.02
2022-11-03T23:15:18.655Z,17.98
2022-11-03T23:18:00.397Z,18.65
2022-11-03T23:20:45.714Z,16.67
2022-11-03T23:23:34.876Z,17.20
2022-11-03T23:26:01.730Z,16.48
2022-11-03T23:28:29.536Z,18.98
2022-11-03T23:30:57.343Z,18.42
2022-11-03T23:33:25.171Z,19.42
2022-11-03T23:35:53.194Z,16.35
2022-11-03T23:38:22.454Z,16.50
2022-11-03T23:40:50.246Z,16.35
2022-11-03T23:43:18.064Z,14.23
2022-11-03T23:46:03.174Z,16.27
2022-11-03T23:48:49.334Z,10.55
2022-11-03T23:51:18.911Z,10.45
2022-11-03T23:53:48.363Z,9.10
2022-11-03T23:56:35.586Z,8.25
2022-11-03T23:59:04.156Z,9.13
